Midway, Missouri
Current Conditions -  °F | °C
As of 10:09 AM on Sunday 23 Nov 2014 (Local Time) from KCOU Reporting Station
Light Rain Light Rain  
Wind Chill: 54°   Ceiling: 400
Heat Index: 54°   Visibility: 2mi
Dew Point: 53°   Wind: 10mph
Humidity: 97%   Direction: 150°SSE
Pressure: 29.56"   Gusts: NA
Location:  39.0235°N, 92.2896°W
Report Text: KCOU 231609Z 15009KT 2SM -RA BR OVC004 12/12 A2956 RMK AO2 CIG 003V008 P0002 T01220117 $
Loading
Personal Weather Stations






























Interactive Weather Map New forecast layout! Learn more

10-Day Weather Forecast

Advertisements
Track Severe Weather on mobile